Wayana — PE5639 — position and weather

sailwx.info

Track history (hours):
 
Tides and Currents Weather Stations Pressure Air Temp Water Temp Dewpoint Dewpoint Depression Visibility Wind Speed Wind Dir Waves Ship Positions

Wayana

Last reported at 2014-Jul-23 07:32 UTC. Time now 2014-Jul-25 13:45 UTC.
Position N 55°39' W 006°02'.

Length 14 m.

Type: Sailing vessel. MMSI: 244020670.

Date/timePositionNaut miles runAvg speedWind from/ knotsBaromVisibWave heightAir tempDewpointWater temp
2014-Jul-23 07:32N 55°39' W 006°02'5 5.3
2014-Jul-23 06:32N 55°36' W 006°10'2 0.1
2014-Jul-22 07:16N 55°38' W 006°11'0 0.0
2014-Jul-22 06:31N 55°38' W 006°11'0 0.0
2014-Jul-22 05:31N 55°38' W 006°11'0 0.0
2014-Jul-22 04:34N 55°38' W 006°11'0 0.0
2014-Jul-22 03:22N 55°38' W 006°11'0 0.0
2014-Jul-22 02:25N 55°38' W 006°11'0 0.0
2014-Jul-22 01:25N 55°38' W 006°11'0 0.0
2014-Jul-22 00:25N 55°38' W 006°11'0 0.0
2014-Jul-21 23:28N 55°38' W 006°11'0 0.0
2014-Jul-21 22:28N 55°38' W 006°11'0 0.0
2014-Jul-21 21:16N 55°38' W 006°11'0 0.0
2014-Jul-21 20:31N 55°38' W 006°11'0 0.0
2014-Jul-21 20:16N 55°38' W 006°11'0 0.0
2014-Jul-21 19:31N 55°38' W 006°11'0 0.0
2014-Jul-21 18:31N 55°38' W 006°11'0 0.0
2014-Jul-21 17:34N 55°38' W 006°11'0 0.0
2014-Jul-21 16:22N 55°38' W 006°11'0 0.0
2014-Jul-21 15:31N 55°38' W 006°11'0 0.0
2014-Jul-21 14:22N 55°38' W 006°11'0 0.0
2014-Jul-21 13:34N 55°38' W 006°11'2 2.0
2014-Jul-21 12:33N 55°36' W 006°09'6 5.7
2014-Jul-21 11:33N 55°39' W 006°01'  
Track history (hours):
 
Tides and Currents Weather Stations Pressure Air Temp Water Temp Dewpoint Dewpoint Depression Visibility Wind Speed Wind Dir Waves Ship Positions

Wayana

Last reported at 2014-Jul-23 07:32 UTC. Time now 2014-Jul-25 13:45 UTC.
Position N 55°39' W 006°02'.

Length 14 m.

Type: Sailing vessel. MMSI: 244020670.

Date/timePositionNaut miles runAvg speedWind from/ knotsBaromVisibWave heightAir tempDewpointWater temp
2014-Jul-23 07:32N 55°39' W 006°02'5 5.3
2014-Jul-23 06:32N 55°36' W 006°10'2 0.1
2014-Jul-22 07:16N 55°38' W 006°11'0 0.0
2014-Jul-22 06:31N 55°38' W 006°11'0 0.0
2014-Jul-22 05:31N 55°38' W 006°11'0 0.0
2014-Jul-22 04:34N 55°38' W 006°11'0 0.0
2014-Jul-22 03:22N 55°38' W 006°11'0 0.0
2014-Jul-22 02:25N 55°38' W 006°11'0 0.0
2014-Jul-22 01:25N 55°38' W 006°11'0 0.0
2014-Jul-22 00:25N 55°38' W 006°11'0 0.0
2014-Jul-21 23:28N 55°38' W 006°11'0 0.0
2014-Jul-21 22:28N 55°38' W 006°11'0 0.0
2014-Jul-21 21:16N 55°38' W 006°11'0 0.0
2014-Jul-21 20:31N 55°38' W 006°11'0 0.0
2014-Jul-21 20:16N 55°38' W 006°11'0 0.0
2014-Jul-21 19:31N 55°38' W 006°11'0 0.0
2014-Jul-21 18:31N 55°38' W 006°11'0 0.0
2014-Jul-21 17:34N 55°38' W 006°11'0 0.0
2014-Jul-21 16:22N 55°38' W 006°11'0 0.0
2014-Jul-21 15:31N 55°38' W 006°11'0 0.0
2014-Jul-21 14:22N 55°38' W 006°11'0 0.0
2014-Jul-21 13:34N 55°38' W 006°11'2 2.0
2014-Jul-21 12:33N 55°36' W 006°09'6 5.7
2014-Jul-21 11:33N 55°39' W 006°01'  

Dump ship's entire track history